sensor_id;sensor_type;location;lat;lon;timestamp;temperature;humidity
18930;DHT22;43305;52.186;5.598;2023-04-01T00:02:19;9.80;99.90
18930;DHT22;43305;52.186;5.598;2023-04-01T00:04:46;9.90;99.90
18930;DHT22;43305;52.186;5.598;2023-04-01T00:07:13;9.90;99.90
18930;DHT22;43305;52.186;5.598;2023-04-01T00:09:41;9.90;99.90
18930;DHT22;43305;52.186;5.598;2023-04-01T00:12:10;9.90;99.90
18930;DHT22;43305;52.186;5.598;2023-04-01T00:14:38;9.90;99.90
18930;DHT22;43305;52.186;5.598;2023-04-01T00:17:21;9.80;99.90
18930;DHT22;43305;52.186;5.598;2023-04-01T00:19:49;9.80;99.90
18930;DHT22;43305;52.186;5.598;2023-04-01T00:22:16;9.90;99.90
18930;DHT22;43305;52.186;5.598;2023-04-01T00:24:44;9.90;99.90
18930;DHT22;43305;52.186;5.598;2023-04-01T00:27:17;9.90;99.90
18930;DHT22;43305;52.186;5.598;2023-04-01T00:29:46;9.90;99.90
18930;DHT22;43305;52.186;5.598;2023-04-01T00:32:17;9.90;99.90
18930;DHT22;43305;52.186;5.598;2023-04-01T00:34:46;9.90;99.90
18930;DHT22;43305;52.186;5.598;2023-04-01T00:37:16;9.90;99.90
18930;DHT22;43305;52.186;5.598;2023-04-01T00:39:44;9.90;99.90
18930;DHT22;43305;52.186;5.598;2023-04-01T00:42:14;9.90;99.90
18930;DHT22;43305;52.186;5.598;2023-04-01T00:44:44;9.90;99.90
18930;DHT22;43305;52.186;5.598;2023-04-01T00:47:13;9.90;99.90
18930;DHT22;43305;52.186;5.598;2023-04-01T00:49:45;9.90;99.90
18930;DHT22;43305;52.186;5.598;2023-04-01T00:52:17;9.90;99.90
18930;DHT22;43305;52.186;5.598;2023-04-01T00:54:47;9.90;99.90
18930;DHT22;43305;52.186;5.598;2023-04-01T00:57:20;9.90;99.90
18930;DHT22;43305;52.186;5.598;2023-04-01T00:59:52;9.90;99.90
18930;DHT22;43305;52.186;5.598;2023-04-01T01:02:21;9.90;99.90
18930;DHT22;43305;52.186;5.598;2023-04-01T01:04:58;9.90;99.90
18930;DHT22;43305;52.186;5.598;2023-04-01T01:07:33;9.90;99.90
18930;DHT22;43305;52.186;5.598;2023-04-01T01:10:07;9.90;99.90
18930;DHT22;43305;52.186;5.598;2023-04-01T01:12:43;9.90;99.90
18930;DHT22;43305;52.186;5.598;2023-04-01T01:15:18;9.90;99.90
18930;DHT22;43305;52.186;5.598;2023-04-01T01:17:52;9.90;99.90
18930;DHT22;43305;52.186;5.598;2023-04-01T01:20:48;9.90;99.90
18930;DHT22;43305;52.186;5.598;2023-04-01T01:23:56;9.90;99.90
18930;DHT22;43305;52.186;5.598;2023-04-01T01:26:50;9.90;99.90
18930;DHT22;43305;52.186;5.598;2023-04-01T01:32:53;9.80;99.90
18930;DHT22;43305;52.186;5.598;2023-04-01T01:35:32;9.70;99.90
18930;DHT22;43305;52.186;5.598;2023-04-01T01:38:03;9.80;99.90
18930;DHT22;43305;52.186;5.598;2023-04-01T01:40:33;9.80;99.90
18930;DHT22;43305;52.186;5.598;2023-04-01T01:43:04;9.80;99.90
18930;DHT22;43305;52.186;5.598;2023-04-01T01:45:34;9.80;99.90
18930;DHT22;43305;52.186;5.598;2023-04-01T01:48:10;9.70;99.90
18930;DHT22;43305;52.186;5.598;2023-04-01T01:51:07;9.80;99.90
18930;DHT22;43305;52.186;5.598;2023-04-01T01:53:37;9.70;99.90
18930;DHT22;43305;52.186;5.598;2023-04-01T01:56:09;9.70;99.90
18930;DHT22;43305;52.186;5.598;2023-04-01T01:58:41;9.80;99.90
18930;DHT22;43305;52.186;5.598;2023-04-01T02:01:12;9.80;99.90
18930;DHT22;43305;52.186;5.598;2023-04-01T02:03:41;9.70;99.90
18930;DHT22;43305;52.186;5.598;2023-04-01T02:06:16;9.70;99.90
18930;DHT22;43305;52.186;5.598;2023-04-01T02:08:47;9.70;99.90
18930;DHT22;43305;52.186;5.598;2023-04-01T02:11:26;9.70;99.90
18930;DHT22;43305;52.186;5.598;2023-04-01T02:13:55;9.70;99.90
18930;DHT22;43305;52.186;5.598;2023-04-01T02:16:31;9.60;99.90
18930;DHT22;43305;52.186;5.598;2023-04-01T02:19:05;9.60;99.90
18930;DHT22;43305;52.186;5.598;2023-04-01T02:21:41;9.60;99.90
18930;DHT22;43305;52.186;5.598;2023-04-01T02:24:13;9.60;99.90
18930;DHT22;43305;52.186;5.598;2023-04-01T02:26:42;9.50;99.90
18930;DHT22;43305;52.186;5.598;2023-04-01T02:29:11;9.60;99.90
18930;DHT22;43305;52.186;5.598;2023-04-01T02:31:40;9.50;99.90
18930;DHT22;43305;52.186;5.598;2023-04-01T02:34:11;9.60;99.90
18930;DHT22;43305;52.186;5.598;2023-04-01T02:36:40;9.60;99.90
18930;DHT22;43305;52.186;5.598;2023-04-01T02:39:08;9.50;99.90
18930;DHT22;43305;52.186;5.598;2023-04-01T02:41:42;9.50;99.90
18930;DHT22;43305;52.186;5.598;2023-04-01T02:44:12;9.50;99.90
18930;DHT22;43305;52.186;5.598;2023-04-01T02:46:39;9.50;99.90
18930;DHT22;43305;52.186;5.598;2023-04-01T02:49:07;9.40;99.90
18930;DHT22;43305;52.186;5.598;2023-04-01T02:51:38;9.40;99.90
18930;DHT22;43305;52.186;5.598;2023-04-01T02:54:09;9.40;99.90
18930;DHT22;43305;52.186;5.598;2023-04-01T02:56:39;9.40;99.90
18930;DHT22;43305;52.186;5.598;2023-04-01T02:59:07;9.30;99.90
18930;DHT22;43305;52.186;5.598;2023-04-01T03:01:34;9.40;99.90
18930;DHT22;43305;52.186;5.598;2023-04-01T03:04:05;9.40;99.90
18930;DHT22;43305;52.186;5.598;2023-04-01T03:06:33;9.40;99.90
18930;DHT22;43305;52.186;5.598;2023-04-01T03:09:03;9.30;99.90
18930;DHT22;43305;52.186;5.598;2023-04-01T03:11:41;9.30;99.90
18930;DHT22;43305;52.186;5.598;2023-04-01T03:14:09;9.40;99.90
18930;DHT22;43305;52.186;5.598;2023-04-01T03:16:58;9.40;99.90
18930;DHT22;43305;52.186;5.598;2023-04-01T03:19:25;9.30;99.90
18930;DHT22;43305;52.186;5.598;2023-04-01T03:21:53;9.30;99.90
18930;DHT22;43305;52.186;5.598;2023-04-01T03:24:29;9.30;99.90
18930;DHT22;43305;52.186;5.598;2023-04-01T03:26:59;9.30;99.90
18930;DHT22;43305;52.186;5.598;2023-04-01T03:29:26;9.30;99.90
18930;DHT22;43305;52.186;5.598;2023-04-01T03:31:54;9.30;99.90
18930;DHT22;43305;52.186;5.598;2023-04-01T03:34:23;9.30;99.90
18930;DHT22;43305;52.186;5.598;2023-04-01T03:36:51;9.30;99.90
18930;DHT22;43305;52.186;5.598;2023-04-01T03:39:18;9.30;99.90
18930;DHT22;43305;52.186;5.598;2023-04-01T03:41:50;9.30;99.90
18930;DHT22;43305;52.186;5.598;2023-04-01T03:44:19;9.30;99.90
18930;DHT22;43305;52.186;5.598;2023-04-01T03:46:47;9.30;99.90
18930;DHT22;43305;52.186;5.598;2023-04-01T03:49:24;9.30;99.90
18930;DHT22;43305;52.186;5.598;2023-04-01T03:51:55;9.30;99.90
18930;DHT22;43305;52.186;5.598;2023-04-01T03:54:25;9.30;99.90
18930;DHT22;43305;52.186;5.598;2023-04-01T03:56:53;9.30;99.90
18930;DHT22;43305;52.186;5.598;2023-04-01T03:59:31;9.30;99.90
18930;DHT22;43305;52.186;5.598;2023-04-01T04:01:58;9.30;99.90
18930;DHT22;43305;52.186;5.598;2023-04-01T04:04:26;9.30;99.90
18930;DHT22;43305;52.186;5.598;2023-04-01T04:06:57;9.30;99.90
18930;DHT22;43305;52.186;5.598;2023-04-01T04:09:37;9.30;99.90
18930;DHT22;43305;52.186;5.598;2023-04-01T04:12:12;9.30;99.90
18930;DHT22;43305;52.186;5.598;2023-04-01T04:14:47;9.30;99.90
18930;DHT22;43305;52.186;5.598;2023-04-01T04:17:14;9.30;99.90
18930;DHT22;43305;52.186;5.598;2023-04-01T04:19:44;9.30;99.90
18930;DHT22;43305;52.186;5.598;2023-04-01T04:22:15;9.30;99.90
18930;DHT22;43305;52.186;5.598;2023-04-01T04:24:43;9.30;99.90
18930;DHT22;43305;52.186;5.598;2023-04-01T04:27:10;9.30;99.90
18930;DHT22;43305;52.186;5.598;2023-04-01T04:29:38;9.30;99.90
18930;DHT22;43305;52.186;5.598;2023-04-01T04:32:11;9.30;99.90
18930;DHT22;43305;52.186;5.598;2023-04-01T04:34:39;9.30;99.90
18930;DHT22;43305;52.186;5.598;2023-04-01T04:37:12;9.30;99.90
18930;DHT22;43305;52.186;5.598;2023-04-01T04:39:47;9.30;99.90
18930;DHT22;43305;52.186;5.598;2023-04-01T04:42:31;9.30;99.90
18930;DHT22;43305;52.186;5.598;2023-04-01T04:45:12;9.30;99.90
18930;DHT22;43305;52.186;5.598;2023-04-01T04:48:04;9.30;99.90
18930;DHT22;43305;52.186;5.598;2023-04-01T04:53:44;9.30;99.90
18930;DHT22;43305;52.186;5.598;2023-04-01T04:56:25;9.30;99.90
18930;DHT22;43305;52.186;5.598;2023-04-01T04:59:02;9.30;99.90
18930;DHT22;43305;52.186;5.598;2023-04-01T05:01:33;9.30;99.90
18930;DHT22;43305;52.186;5.598;2023-04-01T05:04:19;9.30;99.90
18930;DHT22;43305;52.186;5.598;2023-04-01T05:06:58;9.40;99.90
18930;DHT22;43305;52.186;5.598;2023-04-01T05:09:25;9.40;99.90
18930;DHT22;43305;52.186;5.598;2023-04-01T05:11:57;9.40;99.90
18930;DHT22;43305;52.186;5.598;2023-04-01T05:14:31;9.40;99.90
18930;DHT22;43305;52.186;5.598;2023-04-01T05:17:03;9.40;99.90
18930;DHT22;43305;52.186;5.598;2023-04-01T05:19:54;9.40;99.90
18930;DHT22;43305;52.186;5.598;2023-04-01T05:22:24;9.40;99.90
18930;DHT22;43305;52.186;5.598;2023-04-01T05:24:51;9.40;99.90
18930;DHT22;43305;52.186;5.598;2023-04-01T05:27:28;9.40;99.90
18930;DHT22;43305;52.186;5.598;2023-04-01T05:29:55;9.40;99.90
18930;DHT22;43305;52.186;5.598;2023-04-01T05:32:26;9.40;99.90
18930;DHT22;43305;52.186;5.598;2023-04-01T05:34:54;9.40;99.90
18930;DHT22;43305;52.186;5.598;2023-04-01T05:37:22;9.50;99.90
18930;DHT22;43305;52.186;5.598;2023-04-01T05:39:49;9.50;99.90
18930;DHT22;43305;52.186;5.598;2023-04-01T05:42:19;9.50;99.90
18930;DHT22;43305;52.186;5.598;2023-04-01T05:44:47;9.50;99.90
18930;DHT22;43305;52.186;5.598;2023-04-01T05:47:14;9.40;99.90
18930;DHT22;43305;52.186;5.598;2023-04-01T05:49:44;9.50;99.90
18930;DHT22;43305;52.186;5.598;2023-04-01T05:52:15;9.50;99.90
18930;DHT22;43305;52.186;5.598;2023-04-01T05:54:42;9.50;99.90
18930;DHT22;43305;52.186;5.598;2023-04-01T05:57:09;9.50;99.90
18930;DHT22;43305;52.186;5.598;2023-04-01T05:59:39;9.50;99.90
18930;DHT22;43305;52.186;5.598;2023-04-01T06:02:21;9.50;99.90
18930;DHT22;43305;52.186;5.598;2023-04-01T06:05:03;9.60;99.90
18930;DHT22;43305;52.186;5.598;2023-04-01T06:07:42;9.60;99.90
18930;DHT22;43305;52.186;5.598;2023-04-01T06:10:15;9.60;99.90
18930;DHT22;43305;52.186;5.598;2023-04-01T06:13:01;9.60;99.90
18930;DHT22;43305;52.186;5.598;2023-04-01T06:15:40;9.60;99.90
18930;DHT22;43305;52.186;5.598;2023-04-01T06:18:43;9.70;99.90
18930;DHT22;43305;52.186;5.598;2023-04-01T06:21:32;9.70;99.90
18930;DHT22;43305;52.186;5.598;2023-04-01T06:24:34;9.70;99.90
18930;DHT22;43305;52.186;5.598;2023-04-01T06:27:16;9.70;99.90
18930;DHT22;43305;52.186;5.598;2023-04-01T06:29:53;9.80;99.90
18930;DHT22;43305;52.186;5.598;2023-04-01T06:32:52;9.80;99.90
18930;DHT22;43305;52.186;5.598;2023-04-01T06:35:36;9.80;99.90
18930;DHT22;43305;52.186;5.598;2023-04-01T06:38:23;9.80;99.90
18930;DHT22;43305;52.186;5.598;2023-04-01T06:41:23;9.80;99.90
18930;DHT22;43305;52.186;5.598;2023-04-01T06:43:59;9.90;99.90
18930;DHT22;43305;52.186;5.598;2023-04-01T06:46:38;9.90;99.90
18930;DHT22;43305;52.186;5.598;2023-04-01T06:49:29;10.00;99.90
18930;DHT22;43305;52.186;5.598;2023-04-01T06:52:05;10.00;99.90
18930;DHT22;43305;52.186;5.598;2023-04-01T06:54:44;10.00;99.90
18930;DHT22;43305;52.186;5.598;2023-04-01T06:57:21;10.00;99.90
18930;DHT22;43305;52.186;5.598;2023-04-01T06:59:51;10.10;99.90
18930;DHT22;43305;52.186;5.598;2023-04-01T07:02:31;10.10;99.90
18930;DHT22;43305;52.186;5.598;2023-04-01T07:05:01;10.10;99.90
18930;DHT22;43305;52.186;5.598;2023-04-01T07:07:33;10.10;99.90
18930;DHT22;43305;52.186;5.598;2023-04-01T07:10:10;10.20;99.90
18930;DHT22;43305;52.186;5.598;2023-04-01T07:12:47;10.20;99.90
18930;DHT22;43305;52.186;5.598;2023-04-01T07:15:21;10.20;99.90
18930;DHT22;43305;52.186;5.598;2023-04-01T07:17:53;10.20;99.90
18930;DHT22;43305;52.186;5.598;2023-04-01T07:20:24;10.30;99.90
18930;DHT22;43305;52.186;5.598;2023-04-01T07:22:54;10.30;99.90
18930;DHT22;43305;52.186;5.598;2023-04-01T07:25:24;10.30;99.90
18930;DHT22;43305;52.186;5.598;2023-04-01T07:27:59;10.30;99.90
18930;DHT22;43305;52.186;5.598;2023-04-01T07:30:30;10.30;99.90
18930;DHT22;43305;52.186;5.598;2023-04-01T07:33:03;10.30;99.90
18930;DHT22;43305;52.186;5.598;2023-04-01T07:35:37;10.30;99.90
18930;DHT22;43305;52.186;5.598;2023-04-01T07:38:17;10.30;99.90
18930;DHT22;43305;52.186;5.598;2023-04-01T07:40:55;10.30;99.90
18930;DHT22;43305;52.186;5.598;2023-04-01T07:43:51;10.30;99.90
18930;DHT22;43305;52.186;5.598;2023-04-01T07:46:49;10.30;99.90
18930;DHT22;43305;52.186;5.598;2023-04-01T07:49:24;10.40;99.90
18930;DHT22;43305;52.186;5.598;2023-04-01T07:51:59;10.40;99.90
18930;DHT22;43305;52.186;5.598;2023-04-01T07:54:50;10.50;99.90
18930;DHT22;43305;52.186;5.598;2023-04-01T07:57:22;10.50;99.90
18930;DHT22;43305;52.186;5.598;2023-04-01T07:59:58;10.50;99.90
18930;DHT22;43305;52.186;5.598;2023-04-01T08:02:34;10.60;99.90
18930;DHT22;43305;52.186;5.598;2023-04-01T08:05:15;10.60;99.90
18930;DHT22;43305;52.186;5.598;2023-04-01T08:07:49;10.60;99.90
18930;DHT22;43305;52.186;5.598;2023-04-01T08:10:22;10.60;99.90
18930;DHT22;43305;52.186;5.598;2023-04-01T08:12:59;10.60;99.90
18930;DHT22;43305;52.186;5.598;2023-04-01T08:15:35;10.60;99.90
18930;DHT22;43305;52.186;5.598;2023-04-01T08:18:11;10.60;99.90
18930;DHT22;43305;52.186;5.598;2023-04-01T08:20:46;10.60;99.90
18930;DHT22;43305;52.186;5.598;2023-04-01T08:23:16;10.60;99.90
18930;DHT22;43305;52.186;5.598;2023-04-01T08:25:48;10.70;99.90
18930;DHT22;43305;52.186;5.598;2023-04-01T08:28:21;10.70;99.90
18930;DHT22;43305;52.186;5.598;2023-04-01T08:30:52;10.90;99.90
18930;DHT22;43305;52.186;5.598;2023-04-01T08:33:24;10.90;99.90
18930;DHT22;43305;52.186;5.598;2023-04-01T08:35:56;10.90;99.90
18930;DHT22;43305;52.186;5.598;2023-04-01T08:38:28;10.90;99.90
18930;DHT22;43305;52.186;5.598;2023-04-01T08:40:59;10.90;99.90
18930;DHT22;43305;52.186;5.598;2023-04-01T08:43:49;10.90;99.90
18930;DHT22;43305;52.186;5.598;2023-04-01T08:52:42;11.00;99.90
18930;DHT22;43305;52.186;5.598;2023-04-01T08:55:51;11.00;99.90
18930;DHT22;43305;52.186;5.598;2023-04-01T09:01:31;11.00;99.90
18930;DHT22;43305;52.186;5.598;2023-04-01T09:04:16;11.10;99.90
18930;DHT22;43305;52.186;5.598;2023-04-01T09:07:03;11.10;99.90
18930;DHT22;43305;52.186;5.598;2023-04-01T09:09:54;11.30;99.90
18930;DHT22;43305;52.186;5.598;2023-04-01T09:12:50;11.40;99.90
18930;DHT22;43305;52.186;5.598;2023-04-01T09:15:42;11.40;99.90
18930;DHT22;43305;52.186;5.598;2023-04-01T09:19:04;11.50;99.90
18930;DHT22;43305;52.186;5.598;2023-04-01T09:27:44;11.90;99.90
18930;DHT22;43305;52.186;5.598;2023-04-01T09:30:40;12.00;99.90
18930;DHT22;43305;52.186;5.598;2023-04-01T09:39:32;12.40;99.90
18930;DHT22;43305;52.186;5.598;2023-04-01T09:42:33;12.40;99.90
18930;DHT22;43305;52.186;5.598;2023-04-01T09:45:09;12.50;99.90
18930;DHT22;43305;52.186;5.598;2023-04-01T09:47:54;12.50;99.90
18930;DHT22;43305;52.186;5.598;2023-04-01T09:50:33;12.60;99.90
18930;DHT22;43305;52.186;5.598;2023-04-01T09:53:18;12.50;99.90
18930;DHT22;43305;52.186;5.598;2023-04-01T09:56:14;12.50;99.90
18930;DHT22;43305;52.186;5.598;2023-04-01T10:02:25;12.40;99.90
18930;DHT22;43305;52.186;5.598;2023-04-01T10:11:35;12.70;99.90
18930;DHT22;43305;52.186;5.598;2023-04-01T10:14:50;12.90;99.90
18930;DHT22;43305;52.186;5.598;2023-04-01T10:17:47;12.90;99.90
18930;DHT22;43305;52.186;5.598;2023-04-01T10:23:26;12.80;99.90
18930;DHT22;43305;52.186;5.598;2023-04-01T10:29:29;12.70;99.90
18930;DHT22;43305;52.186;5.598;2023-04-01T10:38:44;12.30;99.90
18930;DHT22;43305;52.186;5.598;2023-04-01T10:41:48;12.20;99.90
18930;DHT22;43305;52.186;5.598;2023-04-01T10:44:55;12.00;99.90
18930;DHT22;43305;52.186;5.598;2023-04-01T10:48:04;11.90;99.90
18930;DHT22;43305;52.186;5.598;2023-04-01T10:53:54;11.90;99.90
18930;DHT22;43305;52.186;5.598;2023-04-01T10:56:39;11.90;99.90
18930;DHT22;43305;52.186;5.598;2023-04-01T10:59:28;11.80;99.90
18930;DHT22;43305;52.186;5.598;2023-04-01T11:05:38;11.90;99.90
18930;DHT22;43305;52.186;5.598;2023-04-01T11:12:02;11.90;99.90
18930;DHT22;43305;52.186;5.598;2023-04-01T11:15:15;11.80;99.90
18930;DHT22;43305;52.186;5.598;2023-04-01T11:18:41;11.80;99.90
18930;DHT22;43305;52.186;5.598;2023-04-01T11:21:33;11.80;99.90
18930;DHT22;43305;52.186;5.598;2023-04-01T11:24:26;11.80;99.90
18930;DHT22;43305;52.186;5.598;2023-04-01T11:27:10;11.80;99.90
18930;DHT22;43305;52.186;5.598;2023-04-01T11:29:49;11.80;99.90
18930;DHT22;43305;52.186;5.598;2023-04-01T11:32:29;11.90;99.90
18930;DHT22;43305;52.186;5.598;2023-04-01T11:35:25;12.00;99.90
18930;DHT22;43305;52.186;5.598;2023-04-01T11:37:58;12.00;99.90
18930;DHT22;43305;52.186;5.598;2023-04-01T11:40:34;11.90;99.90
18930;DHT22;43305;52.186;5.598;2023-04-01T11:43:11;12.00;99.90
18930;DHT22;43305;52.186;5.598;2023-04-01T11:45:50;12.10;99.90
18930;DHT22;43305;52.186;5.598;2023-04-01T11:48:43;12.10;99.90
18930;DHT22;43305;52.186;5.598;2023-04-01T11:51:33;12.20;99.90
18930;DHT22;43305;52.186;5.598;2023-04-01T11:54:16;12.30;99.90
18930;DHT22;43305;52.186;5.598;2023-04-01T11:56:59;12.30;99.90
18930;DHT22;43305;52.186;5.598;2023-04-01T12:02:28;12.60;99.90
18930;DHT22;43305;52.186;5.598;2023-04-01T12:05:24;12.80;99.90
18930;DHT22;43305;52.186;5.598;2023-04-01T12:08:09;13.00;99.90
18930;DHT22;43305;52.186;5.598;2023-04-01T12:10:39;13.10;99.90
18930;DHT22;43305;52.186;5.598;2023-04-01T12:13:23;13.10;99.90
18930;DHT22;43305;52.186;5.598;2023-04-01T12:16:09;13.10;99.90
18930;DHT22;43305;52.186;5.598;2023-04-01T12:18:41;13.00;99.90
18930;DHT22;43305;52.186;5.598;2023-04-01T12:21:17;12.80;99.90
18930;DHT22;43305;52.186;5.598;2023-04-01T12:24:25;12.70;99.90
18930;DHT22;43305;52.186;5.598;2023-04-01T12:27:20;12.60;99.90
18930;DHT22;43305;52.186;5.598;2023-04-01T12:32:49;12.50;99.90
18930;DHT22;43305;52.186;5.598;2023-04-01T12:35:24;12.40;99.90
18930;DHT22;43305;52.186;5.598;2023-04-01T12:38:04;12.40;99.90
18930;DHT22;43305;52.186;5.598;2023-04-01T12:41:08;12.40;99.90
18930;DHT22;43305;52.186;5.598;2023-04-01T12:46:52;12.20;99.90
18930;DHT22;43305;52.186;5.598;2023-04-01T12:49:37;12.20;99.90
18930;DHT22;43305;52.186;5.598;2023-04-01T12:52:10;12.10;99.90
18930;DHT22;43305;52.186;5.598;2023-04-01T12:58:03;12.10;99.90
18930;DHT22;43305;52.186;5.598;2023-04-01T13:00:54;12.10;99.90
18930;DHT22;43305;52.186;5.598;2023-04-01T13:03:39;12.20;99.90
18930;DHT22;43305;52.186;5.598;2023-04-01T13:06:25;12.20;99.90
18930;DHT22;43305;52.186;5.598;2023-04-01T13:09:02;12.20;99.90
18930;DHT22;43305;52.186;5.598;2023-04-01T13:11:37;12.20;99.90
18930;DHT22;43305;52.186;5.598;2023-04-01T13:14:23;12.20;99.90
18930;DHT22;43305;52.186;5.598;2023-04-01T13:16:57;12.10;99.90
18930;DHT22;43305;52.186;5.598;2023-04-01T13:19:29;12.10;99.90
18930;DHT22;43305;52.186;5.598;2023-04-01T13:22:05;12.00;99.90
18930;DHT22;43305;52.186;5.598;2023-04-01T13:24:41;12.00;99.90
18930;DHT22;43305;52.186;5.598;2023-04-01T13:27:18;11.90;99.90
18930;DHT22;43305;52.186;5.598;2023-04-01T13:30:01;11.90;99.90
18930;DHT22;43305;52.186;5.598;2023-04-01T13:32:34;11.90;99.90
18930;DHT22;43305;52.186;5.598;2023-04-01T13:35:23;11.90;99.90
18930;DHT22;43305;52.186;5.598;2023-04-01T13:38:19;11.90;99.90
18930;DHT22;43305;52.186;5.598;2023-04-01T13:40:57;11.90;99.90
18930;DHT22;43305;52.186;5.598;2023-04-01T13:43:31;11.80;99.90
18930;DHT22;43305;52.186;5.598;2023-04-01T13:46:27;11.80;99.90
18930;DHT22;43305;52.186;5.598;2023-04-01T13:55:30;11.80;99.90
18930;DHT22;43305;52.186;5.598;2023-04-01T13:58:26;11.70;99.90
18930;DHT22;43305;52.186;5.598;2023-04-01T14:01:00;11.70;99.90
18930;DHT22;43305;52.186;5.598;2023-04-01T14:06:34;11.70;99.90
18930;DHT22;43305;52.186;5.598;2023-04-01T14:09:30;11.60;99.90
18930;DHT22;43305;52.186;5.598;2023-04-01T14:12:05;11.60;99.90
18930;DHT22;43305;52.186;5.598;2023-04-01T14:14:46;11.50;99.90
18930;DHT22;43305;52.186;5.598;2023-04-01T14:17:35;11.40;99.90
18930;DHT22;43305;52.186;5.598;2023-04-01T14:20:37;11.40;99.90
18930;DHT22;43305;52.186;5.598;2023-04-01T14:29:22;11.30;99.90
18930;DHT22;43305;52.186;5.598;2023-04-01T14:32:02;11.20;99.90
18930;DHT22;43305;52.186;5.598;2023-04-01T14:34:48;11.30;99.90
18930;DHT22;43305;52.186;5.598;2023-04-01T14:37:34;11.30;99.90
18930;DHT22;43305;52.186;5.598;2023-04-01T14:40:22;11.40;99.90
18930;DHT22;43305;52.186;5.598;2023-04-01T14:46:32;11.50;99.90
18930;DHT22;43305;52.186;5.598;2023-04-01T14:49:13;11.60;99.90
18930;DHT22;43305;52.186;5.598;2023-04-01T14:51:43;11.60;99.90
18930;DHT22;43305;52.186;5.598;2023-04-01T14:54:14;11.70;99.90
18930;DHT22;43305;52.186;5.598;2023-04-01T14:56:49;11.70;99.90
18930;DHT22;43305;52.186;5.598;2023-04-01T14:59:26;11.70;99.90
18930;DHT22;43305;52.186;5.598;2023-04-01T15:02:01;11.70;99.90
18930;DHT22;43305;52.186;5.598;2023-04-01T15:10:53;11.70;99.90
18930;DHT22;43305;52.186;5.598;2023-04-01T15:13:30;11.70;99.90
18930;DHT22;43305;52.186;5.598;2023-04-01T15:16:13;11.70;99.90
18930;DHT22;43305;52.186;5.598;2023-04-01T15:18:51;11.70;99.90
18930;DHT22;43305;52.186;5.598;2023-04-01T15:21:37;11.60;99.90
18930;DHT22;43305;52.186;5.598;2023-04-01T15:24:11;11.60;99.90
18930;DHT22;43305;52.186;5.598;2023-04-01T15:27:09;11.60;99.90
18930;DHT22;43305;52.186;5.598;2023-04-01T15:29:52;11.50;99.90
18930;DHT22;43305;52.186;5.598;2023-04-01T15:32:32;11.50;99.90
18930;DHT22;43305;52.186;5.598;2023-04-01T15:35:18;11.50;99.90
18930;DHT22;43305;52.186;5.598;2023-04-01T15:37:52;11.40;99.90
18930;DHT22;43305;52.186;5.598;2023-04-01T15:40:25;11.30;99.90
18930;DHT22;43305;52.186;5.598;2023-04-01T15:43:03;11.30;99.90
18930;DHT22;43305;52.186;5.598;2023-04-01T15:45:47;11.30;99.90
18930;DHT22;43305;52.186;5.598;2023-04-01T15:48:39;11.30;99.90
18930;DHT22;43305;52.186;5.598;2023-04-01T15:51:26;11.30;99.90
18930;DHT22;43305;52.186;5.598;2023-04-01T15:57:04;11.20;99.90
18930;DHT22;43305;52.186;5.598;2023-04-01T15:59:51;11.20;99.90
18930;DHT22;43305;52.186;5.598;2023-04-01T16:02:25;11.20;99.90
18930;DHT22;43305;52.186;5.598;2023-04-01T16:04:59;11.20;99.90
18930;DHT22;43305;52.186;5.598;2023-04-01T16:07:43;11.10;99.90
18930;DHT22;43305;52.186;5.598;2023-04-01T16:10:23;11.00;99.90
18930;DHT22;43305;52.186;5.598;2023-04-01T16:13:10;11.00;99.90
18930;DHT22;43305;52.186;5.598;2023-04-01T16:15:47;10.90;99.90
18930;DHT22;43305;52.186;5.598;2023-04-01T16:18:40;10.80;99.90
18930;DHT22;43305;52.186;5.598;2023-04-01T16:21:20;10.70;99.90
18930;DHT22;43305;52.186;5.598;2023-04-01T16:23:51;10.70;99.90
18930;DHT22;43305;52.186;5.598;2023-04-01T16:26:24;10.60;99.90
18930;DHT22;43305;52.186;5.598;2023-04-01T16:28:57;10.60;99.90
18930;DHT22;43305;52.186;5.598;2023-04-01T16:31:34;10.60;99.90
18930;DHT22;43305;52.186;5.598;2023-04-01T16:34:14;10.50;99.90
18930;DHT22;43305;52.186;5.598;2023-04-01T16:36:47;10.50;99.90
18930;DHT22;43305;52.186;5.598;2023-04-01T16:39:26;10.40;99.90
18930;DHT22;43305;52.186;5.598;2023-04-01T16:42:11;10.30;99.90
18930;DHT22;43305;52.186;5.598;2023-04-01T16:44:49;10.30;99.90
18930;DHT22;43305;52.186;5.598;2023-04-01T16:47:22;10.30;99.90
18930;DHT22;43305;52.186;5.598;2023-04-01T16:49:59;10.20;99.90
18930;DHT22;43305;52.186;5.598;2023-04-01T16:52:39;10.20;99.90
18930;DHT22;43305;52.186;5.598;2023-04-01T16:55:16;10.20;99.90
18930;DHT22;43305;52.186;5.598;2023-04-01T16:57:50;10.10;99.90
18930;DHT22;43305;52.186;5.598;2023-04-01T17:00:25;10.10;99.90
18930;DHT22;43305;52.186;5.598;2023-04-01T17:03:02;10.10;99.90
18930;DHT22;43305;52.186;5.598;2023-04-01T17:05:41;10.10;99.90
18930;DHT22;43305;52.186;5.598;2023-04-01T17:08:22;10.10;99.90
18930;DHT22;43305;52.186;5.598;2023-04-01T17:10:58;10.10;99.90
18930;DHT22;43305;52.186;5.598;2023-04-01T17:13:35;10.10;99.90
18930;DHT22;43305;52.186;5.598;2023-04-01T17:16:15;10.00;99.90
18930;DHT22;43305;52.186;5.598;2023-04-01T17:19:01;10.00;99.90
18930;DHT22;43305;52.186;5.598;2023-04-01T17:21:48;9.90;99.90
18930;DHT22;43305;52.186;5.598;2023-04-01T17:24:46;9.90;99.90
18930;DHT22;43305;52.186;5.598;2023-04-01T17:27:36;9.90;99.90
18930;DHT22;43305;52.186;5.598;2023-04-01T17:30:16;9.90;99.90
18930;DHT22;43305;52.186;5.598;2023-04-01T17:32:59;9.80;99.90
18930;DHT22;43305;52.186;5.598;2023-04-01T17:35:50;9.80;99.90
18930;DHT22;43305;52.186;5.598;2023-04-01T17:38:50;9.80;99.90
18930;DHT22;43305;52.186;5.598;2023-04-01T17:41:30;9.70;99.90
18930;DHT22;43305;52.186;5.598;2023-04-01T17:44:16;9.70;99.90
18930;DHT22;43305;52.186;5.598;2023-04-01T17:46:59;9.60;99.90
18930;DHT22;43305;52.186;5.598;2023-04-01T17:49:33;9.60;99.90
18930;DHT22;43305;52.186;5.598;2023-04-01T17:52:12;9.60;99.90
18930;DHT22;43305;52.186;5.598;2023-04-01T17:54:49;9.60;99.90
18930;DHT22;43305;52.186;5.598;2023-04-01T17:57:31;9.60;99.90
18930;DHT22;43305;52.186;5.598;2023-04-01T18:00:14;9.50;99.90
18930;DHT22;43305;52.186;5.598;2023-04-01T18:02:54;9.50;99.90
18930;DHT22;43305;52.186;5.598;2023-04-01T18:05:39;9.40;99.90
18930;DHT22;43305;52.186;5.598;2023-04-01T18:08:17;9.40;99.90
18930;DHT22;43305;52.186;5.598;2023-04-01T18:11:05;9.40;99.90
18930;DHT22;43305;52.186;5.598;2023-04-01T18:14:03;9.40;99.90
18930;DHT22;43305;52.186;5.598;2023-04-01T18:16:53;9.40;99.90
18930;DHT22;43305;52.186;5.598;2023-04-01T18:19:29;9.40;99.90
18930;DHT22;43305;52.186;5.598;2023-04-01T18:22:02;9.40;99.90
18930;DHT22;43305;52.186;5.598;2023-04-01T18:24:35;9.30;99.90
18930;DHT22;43305;52.186;5.598;2023-04-01T18:27:15;9.30;99.90
18930;DHT22;43305;52.186;5.598;2023-04-01T18:29:48;9.30;99.90
18930;DHT22;43305;52.186;5.598;2023-04-01T18:32:26;9.20;99.90